Time;durP1;ratioP1;P1;durP2;ratioP2;P2;SDS_P1;SDS_P2;PMS_P1;PMS_P2;Temp;Humidity;BMP_temperature;BMP_pressure;BME280_temperature;BME280_humidity;BME280_pressure;Samples;Min_cycle;Max_cycle;Signal;HPM_P1;HPM_P2
2023/07/01 00:00:32;;;;;;;3.78;2.65;;;;;;;;;;2071703;28;20054;-79
2023/07/01 00:01:51;;;;;;;6.22;2.70;;;;;;;;;;2071341;28;20026;-79
2023/07/01 00:03:11;;;;;;;4.05;2.30;;;;;;;;;;2066873;28;20121;-79
2023/07/01 00:04:29;;;;;;;5.55;2.70;;;;;;;;;;2070924;28;20022;-80
2023/07/01 00:05:49;;;;;;;3.67;2.13;;;;;;;;;;2070529;28;20022;-80
2023/07/01 00:07:08;;;;;;;3.55;2.33;;;;;;;;;;2070687;28;20038;-80
2023/07/01 00:08:27;;;;;;;6.75;2.60;;;;;;;;;;2073272;28;20395;-80
2023/07/01 00:09:46;;;;;;;9.77;3.03;;;;;;;;;;2071730;28;20034;-80
2023/07/01 00:11:05;;;;;;;6.80;3.00;;;;;;;;;;2072026;28;20026;-80
2023/07/01 00:12:24;;;;;;;5.75;2.33;;;;;;;;;;2069760;28;20061;-81
2023/07/01 00:13:42;;;;;;;7.43;2.92;;;;;;;;;;2070728;28;20053;-79
2023/07/01 00:15:02;;;;;;;9.15;3.13;;;;;;;;;;2067623;28;20026;-82
2023/07/01 00:16:21;;;;;;;6.15;2.40;;;;;;;;;;2067975;28;20030;-81
2023/07/01 00:17:41;;;;;;;5.80;2.90;;;;;;;;;;2071371;28;20022;-80
2023/07/01 00:19:00;;;;;;;5.55;2.85;;;;;;;;;;2071171;28;20018;-80
2023/07/01 00:20:20;;;;;;;5.53;2.40;;;;;;;;;;2071078;28;20025;-79
2023/07/01 00:21:39;;;;;;;7.72;2.40;;;;;;;;;;2071241;28;20037;-80
2023/07/01 00:22:58;;;;;;;5.35;2.05;;;;;;;;;;2068591;28;20052;-79
2023/07/01 00:24:17;;;;;;;5.18;2.90;;;;;;;;;;2067543;28;20120;-78
2023/07/01 00:25:35;;;;;;;7.72;2.90;;;;;;;;;;2071188;28;20026;-80
2023/07/01 00:26:55;;;;;;;5.47;2.63;;;;;;;;;;2072935;28;20037;-80
2023/07/01 00:28:13;;;;;;;5.68;2.78;;;;;;;;;;2071947;28;20026;-79
2023/07/01 00:29:32;;;;;;;4.93;3.22;;;;;;;;;;2071283;28;20026;-80
2023/07/01 00:30:51;;;;;;;6.70;2.63;;;;;;;;;;2067929;28;20018;-79
2023/07/01 00:32:10;;;;;;;4.90;2.70;;;;;;;;;;2068132;28;20014;-79
2023/07/01 00:33:29;;;;;;;4.95;2.80;;;;;;;;;;2067744;28;20030;-80
2023/07/01 00:34:48;;;;;;;7.43;3.03;;;;;;;;;;2072162;28;20030;-79
2023/07/01 00:36:08;;;;;;;7.70;2.75;;;;;;;;;;2072151;28;20030;-80
2023/07/01 00:37:28;;;;;;;4.65;2.45;;;;;;;;;;2059359;28;20031;-79
2023/07/01 00:38:47;;;;;;;7.80;3.00;;;;;;;;;;2068340;28;20546;-79
2023/07/01 00:40:06;;;;;;;7.75;2.45;;;;;;;;;;2069718;28;20041;-79
2023/07/01 00:41:25;;;;;;;10.30;3.28;;;;;;;;;;2071798;28;20038;-80
2023/07/01 00:42:44;;;;;;;8.85;2.53;;;;;;;;;;2069225;28;20034;-80
2023/07/01 00:44:03;;;;;;;4.28;2.53;;;;;;;;;;2071211;28;20061;-80
2023/07/01 00:45:22;;;;;;;14.23;2.92;;;;;;;;;;2070998;28;20435;-80
2023/07/01 00:46:42;;;;;;;7.28;2.70;;;;;;;;;;2072341;28;20025;-80
2023/07/01 00:48:00;;;;;;;4.53;2.30;;;;;;;;;;2071034;28;20034;-80
2023/07/01 00:49:19;;;;;;;7.65;2.92;;;;;;;;;;2072383;28;20026;-80
2023/07/01 00:50:38;;;;;;;5.97;2.78;;;;;;;;;;2070652;28;20030;-79
2023/07/01 00:51:57;;;;;;;7.68;2.78;;;;;;;;;;2066755;28;20029;-79
2023/07/01 00:53:16;;;;;;;4.57;2.70;;;;;;;;;;2071865;28;20371;-80
2023/07/01 00:54:35;;;;;;;7.60;2.95;;;;;;;;;;2071230;28;20019;-79
2023/07/01 00:55:54;;;;;;;9.15;2.75;;;;;;;;;;2077863;28;20025;-80
2023/07/01 00:57:13;;;;;;;8.07;2.15;;;;;;;;;;2070395;28;20072;-79
2023/07/01 00:58:33;;;;;;;7.28;3.35;;;;;;;;;;2072146;28;20034;-79
2023/07/01 00:59:52;;;;;;;10.30;3.00;;;;;;;;;;2076606;28;20108;-81
2023/07/01 01:01:13;;;;;;;5.57;2.50;;;;;;;;;;2067307;28;20030;-81
2023/07/01 01:02:36;;;;;;;5.25;2.65;;;;;;;;;;2067633;28;20491;-82
2023/07/01 01:04:00;;;;;;;5.65;3.00;;;;;;;;;;2069066;28;20030;-82
2023/07/01 01:05:23;;;;;;;4.65;2.75;;;;;;;;;;2072902;28;20399;-81
2023/07/01 01:06:43;;;;;;;;;;;;;;;;;;2077569;28;20038;-81
2023/07/01 01:08:08;;;;;;;11.27;3.17;;;;;;;;;;2077358;28;20314;-79
2023/07/01 01:09:36;;;;;;;5.65;2.70;;;;;;;;;;2076672;28;20038;-80
2023/07/01 01:10:59;;;;;;;6.68;2.72;;;;;;;;;;2080509;28;20034;-80
2023/07/01 01:12:19;;;;;;;8.38;3.03;;;;;;;;;;2079338;28;20014;-80
2023/07/01 01:13:39;;;;;;;5.85;3.08;;;;;;;;;;2081155;28;20022;-80
2023/07/01 01:14:58;;;;;;;3.78;2.72;;;;;;;;;;2081691;28;20061;-80
2023/07/01 01:16:17;;;;;;;6.60;2.83;;;;;;;;;;2079961;28;20025;-80
2023/07/01 01:17:37;;;;;;;4.60;2.60;;;;;;;;;;2080082;28;20026;-80
2023/07/01 01:18:57;;;;;;;6.25;2.95;;;;;;;;;;2078880;28;20029;-80
2023/07/01 01:20:20;;;;;;;9.68;3.17;;;;;;;;;;2076076;28;20038;-79
2023/07/01 01:21:40;;;;;;;11.07;3.00;;;;;;;;;;2073475;28;20037;-81
2023/07/01 01:23:03;;;;;;;4.88;2.42;;;;;;;;;;2073638;28;20038;-81
2023/07/01 01:24:24;;;;;;;3.42;2.65;;;;;;;;;;2072519;28;20541;-80
2023/07/01 01:25:47;;;;;;;8.90;2.85;;;;;;;;;;2072532;28;20507;-81
2023/07/01 01:27:08;;;;;;;7.10;2.80;;;;;;;;;;2073719;28;20030;-81
2023/07/01 01:28:27;;;;;;;4.15;2.45;;;;;;;;;;2070665;28;20026;-79
2023/07/01 01:29:46;;;;;;;9.43;2.97;;;;;;;;;;2068789;28;20087;-79
2023/07/01 01:31:06;;;;;;;8.82;3.08;;;;;;;;;;2072920;28;20026;-79
2023/07/01 01:32:25;;;;;;;7.55;2.90;;;;;;;;;;2073429;28;20030;-80
2023/07/01 01:33:44;;;;;;;5.97;2.90;;;;;;;;;;2071956;28;20038;-80
2023/07/01 01:35:03;;;;;;;6.25;2.60;;;;;;;;;;2070604;28;20049;-80
2023/07/01 01:36:29;;;;;;;5.07;2.42;;;;;;;;;;2066029;28;20575;-80
2023/07/01 01:38:04;;;;;;;6.63;3.22;;;;;;;;;;2078017;28;20026;-80
2023/07/01 01:39:26;;;;;;;7.20;3.28;;;;;;;;;;2077705;28;20030;-80
2023/07/01 01:41:04;;;;;;;8.13;2.75;;;;;;;;;;2075805;28;20049;-80
2023/07/01 01:42:27;;;;;;;5.90;2.80;;;;;;;;;;2073034;28;20430;-80
2023/07/01 01:43:48;;;;;;;9.70;3.28;;;;;;;;;;2073012;28;20511;-80
2023/07/01 01:45:07;;;;;;;5.80;3.03;;;;;;;;;;2067473;28;20030;-80
2023/07/01 01:46:27;;;;;;;3.40;2.53;;;;;;;;;;2073532;28;20026;-80
2023/07/01 01:47:47;;;;;;;5.60;2.97;;;;;;;;;;2071330;28;20042;-80
2023/07/01 01:49:08;;;;;;;6.72;2.70;;;;;;;;;;2072436;28;20022;-80
2023/07/01 01:50:27;;;;;;;5.20;2.55;;;;;;;;;;2073450;28;20386;-80
2023/07/01 01:51:46;;;;;;;5.57;2.90;;;;;;;;;;2073409;28;20037;-80
2023/07/01 01:53:06;;;;;;;11.75;2.90;;;;;;;;;;2079043;28;20518;-80
2023/07/01 01:54:25;;;;;;;5.78;3.00;;;;;;;;;;2074424;28;20438;-80
2023/07/01 01:55:45;;;;;;;11.20;3.20;;;;;;;;;;2072405;28;20030;-80
2023/07/01 01:57:05;;;;;;;8.98;2.78;;;;;;;;;;2072966;28;20026;-79
2023/07/01 01:58:24;;;;;;;6.15;2.92;;;;;;;;;;2072579;28;20033;-79
2023/07/01 01:59:44;;;;;;;10.35;3.17;;;;;;;;;;2073796;28;20092;-78
2023/07/01 02:01:03;;;;;;;8.32;3.00;;;;;;;;;;2074143;28;20218;-78
2023/07/01 02:02:22;;;;;;;9.13;3.28;;;;;;;;;;2075486;28;20109;-78
2023/07/01 02:03:43;;;;;;;7.47;3.50;;;;;;;;;;2078324;28;21728;-79
2023/07/01 02:05:02;;;;;;;8.18;3.42;;;;;;;;;;2076251;28;20033;-83
2023/07/01 02:06:21;;;;;;;9.68;3.40;;;;;;;;;;2076778;28;20026;-80
2023/07/01 02:07:40;;;;;;;5.43;2.60;;;;;;;;;;2073709;28;20025;-81
2023/07/01 02:08:59;;;;;;;5.25;3.17;;;;;;;;;;2073800;28;20026;-80
2023/07/01 02:10:19;;;;;;;4.88;2.45;;;;;;;;;;2072714;28;20034;-81
2023/07/01 02:11:38;;;;;;;10.65;3.53;;;;;;;;;;2074871;28;20030;-81
2023/07/01 02:12:57;;;;;;;6.70;3.00;;;;;;;;;;2073941;28;20022;-81
2023/07/01 02:14:16;;;;;;;6.05;2.88;;;;;;;;;;2072581;28;20033;-80
2023/07/01 02:15:35;;;;;;;5.15;2.92;;;;;;;;;;2072647;28;20085;-80
2023/07/01 02:16:54;;;;;;;6.10;3.00;;;;;;;;;;2074226;28;20022;-81
2023/07/01 02:18:13;;;;;;;7.55;3.08;;;;;;;;;;2069975;28;20038;-80
2023/07/01 02:19:32;;;;;;;6.30;3.00;;;;;;;;;;2075223;28;20025;-81
2023/07/01 02:20:51;;;;;;;7.25;3.38;;;;;;;;;;2075030;28;20029;-80
2023/07/01 02:22:10;;;;;;;8.13;3.17;;;;;;;;;;2073603;28;20363;-81
2023/07/01 02:23:29;;;;;;;7.90;3.17;;;;;;;;;;2072174;28;20418;-80
2023/07/01 02:24:48;;;;;;;11.82;3.58;;;;;;;;;;2071826;28;20117;-80
2023/07/01 02:26:08;;;;;;;7.00;2.70;;;;;;;;;;2071850;28;20034;-81
2023/07/01 02:27:30;;;;;;;6.65;2.83;;;;;;;;;;2073641;28;20030;-80
2023/07/01 02:28:49;;;;;;;7.50;2.90;;;;;;;;;;2072206;28;20046;-81
2023/07/01 02:30:08;;;;;;;5.78;2.85;;;;;;;;;;2066340;28;20046;-81
2023/07/01 02:31:27;;;;;;;4.95;2.75;;;;;;;;;;2065789;28;20674;-81
2023/07/01 02:32:46;;;;;;;8.25;2.85;;;;;;;;;;2071651;28;20033;-81
2023/07/01 02:34:05;;;;;;;5.97;2.75;;;;;;;;;;2072678;28;20407;-81
2023/07/01 02:35:23;;;;;;;5.53;3.00;;;;;;;;;;2070302;28;20045;-81
2023/07/01 02:36:43;;;;;;;5.90;2.72;;;;;;;;;;2071969;28;20030;-81
2023/07/01 02:38:02;;;;;;;10.95;2.78;;;;;;;;;;2072888;28;20034;-81
2023/07/01 02:39:21;;;;;;;9.25;3.50;;;;;;;;;;2072629;28;20097;-81
2023/07/01 02:40:40;;;;;;;7.72;3.08;;;;;;;;;;2071799;28;20034;-81
2023/07/01 02:41:59;;;;;;;6.35;3.25;;;;;;;;;;2071084;28;20042;-80
2023/07/01 02:43:18;;;;;;;7.40;3.10;;;;;;;;;;2072748;28;20030;-81
2023/07/01 02:44:37;;;;;;;8.93;2.95;;;;;;;;;;2071564;28;20034;-80
2023/07/01 02:45:56;;;;;;;8.05;3.17;;;;;;;;;;2071177;28;20034;-81
2023/07/01 02:47:16;;;;;;;7.50;2.80;;;;;;;;;;2070937;28;20116;-80
2023/07/01 02:48:35;;;;;;;7.70;3.05;;;;;;;;;;2072143;28;20022;-80
2023/07/01 02:49:53;;;;;;;7.63;3.20;;;;;;;;;;2071772;28;20057;-80
2023/07/01 02:51:12;;;;;;;9.35;3.72;;;;;;;;;;2070458;28;20022;-80
2023/07/01 02:52:31;;;;;;;4.53;2.80;;;;;;;;;;2072025;28;20030;-81
2023/07/01 02:53:50;;;;;;;7.53;3.17;;;;;;;;;;2070944;28;20018;-81
2023/07/01 02:55:09;;;;;;;7.00;3.20;;;;;;;;;;2074988;28;20025;-81
2023/07/01 02:56:28;;;;;;;5.15;3.22;;;;;;;;;;2074725;28;20034;-81
2023/07/01 02:57:47;;;;;;;9.48;2.92;;;;;;;;;;2072582;28;20030;-81
2023/07/01 02:59:06;;;;;;;6.03;3.17;;;;;;;;;;2073374;28;20030;-81
2023/07/01 03:00:25;;;;;;;9.32;3.70;;;;;;;;;;2072688;28;20026;-81
2023/07/01 03:01:44;;;;;;;10.40;3.42;;;;;;;;;;2070021;28;20108;-81
2023/07/01 03:03:06;;;;;;;7.03;3.05;;;;;;;;;;2077974;28;20065;-80
2023/07/01 03:04:26;;;;;;;6.93;3.00;;;;;;;;;;2070837;28;20053;-80
2023/07/01 03:05:45;;;;;;;9.43;3.33;;;;;;;;;;2067802;28;20022;-80
2023/07/01 03:07:04;;;;;;;4.78;3.17;;;;;;;;;;2067389;28;20511;-80
2023/07/01 03:08:24;;;;;;;7.18;3.38;;;;;;;;;;2068471;28;20030;-81
2023/07/01 03:09:42;;;;;;;8.65;2.88;;;;;;;;;;2073530;28;20449;-80
2023/07/01 03:11:03;;;;;;;9.60;3.53;;;;;;;;;;2075636;28;20026;-80
2023/07/01 03:12:22;;;;;;;5.22;2.72;;;;;;;;;;2071236;28;20030;-80
2023/07/01 03:13:42;;;;;;;5.88;2.75;;;;;;;;;;2068937;28;20034;-80
2023/07/01 03:15:02;;;;;;;8.32;3.35;;;;;;;;;;2072003;28;20018;-80
2023/07/01 03:16:21;;;;;;;7.35;3.80;;;;;;;;;;2073067;28;20057;-80
2023/07/01 03:17:40;;;;;;;8.50;3.50;;;;;;;;;;2069733;28;20471;-80
2023/07/01 03:18:59;;;;;;;9.82;3.83;;;;;;;;;;2072304;28;20554;-80
2023/07/01 03:20:25;;;;;;;7.90;3.60;;;;;;;;;;2071608;28;20065;-81
2023/07/01 03:21:45;;;;;;;5.90;3.00;;;;;;;;;;2075189;28;20038;-80
2023/07/01 03:23:04;;;;;;;6.82;2.90;;;;;;;;;;2071741;28;20026;-80
2023/07/01 03:24:23;;;;;;;6.82;3.08;;;;;;;;;;2072449;28;20061;-80
2023/07/01 03:25:42;;;;;;;9.43;3.03;;;;;;;;;;2071788;28;20038;-80
2023/07/01 03:27:04;;;;;;;7.40;3.30;;;;;;;;;;2073468;28;20042;-80
2023/07/01 03:28:24;;;;;;;5.43;2.97;;;;;;;;;;2072304;28;20448;-80
2023/07/01 03:29:43;;;;;;;6.30;3.08;;;;;;;;;;2070651;28;20034;-80
2023/07/01 03:31:04;;;;;;;11.48;3.28;;;;;;;;;;2067479;28;20022;-80
2023/07/01 03:32:23;;;;;;;6.05;3.05;;;;;;;;;;2072213;28;20426;-79
2023/07/01 03:33:41;;;;;;;7.47;3.40;;;;;;;;;;2072317;28;20191;-81
2023/07/01 03:35:00;;;;;;;6.90;3.63;;;;;;;;;;2065310;28;20018;-82
2023/07/01 03:36:19;;;;;;;9.30;2.92;;;;;;;;;;2068207;28;20029;-81
2023/07/01 03:37:39;;;;;;;5.25;3.20;;;;;;;;;;2064110;28;20105;-81
2023/07/01 03:38:58;;;;;;;8.55;3.30;;;;;;;;;;2061456;28;20034;-81
2023/07/01 03:40:17;;;;;;;8.65;3.15;;;;;;;;;;2059768;28;20034;-83
2023/07/01 03:41:36;;;;;;;9.73;3.45;;;;;;;;;;2067138;28;20042;-82
2023/07/01 03:42:55;;;;;;;6.22;2.95;;;;;;;;;;2071943;28;20030;-82
2023/07/01 03:44:14;;;;;;;9.20;3.38;;;;;;;;;;2063430;28;20027;-82
2023/07/01 03:45:33;;;;;;;11.40;3.03;;;;;;;;;;2068322;28;20037;-82
2023/07/01 03:46:52;;;;;;;8.07;2.78;;;;;;;;;;2071091;28;20026;-82
2023/07/01 03:48:11;;;;;;;12.07;3.70;;;;;;;;;;2071928;28;20026;-82
2023/07/01 03:49:30;;;;;;;10.48;3.95;;;;;;;;;;2063614;28;20026;-81
2023/07/01 03:50:49;;;;;;;17.50;3.25;;;;;;;;;;2068739;28;20168;-82
2023/07/01 03:52:08;;;;;;;6.72;2.80;;;;;;;;;;2063383;28;20446;-81
2023/07/01 03:53:27;;;;;;;12.82;3.25;;;;;;;;;;2069389;28;20030;-82
2023/07/01 03:54:46;;;;;;;7.00;2.75;;;;;;;;;;2073715;28;20053;-81
2023/07/01 03:56:05;;;;;;;7.97;3.63;;;;;;;;;;2070353;28;20022;-82
2023/07/01 03:57:24;;;;;;;5.10;3.03;;;;;;;;;;2072258;28;20030;-81
2023/07/01 03:58:43;;;;;;;10.15;3.05;;;;;;;;;;2064177;28;20026;-81
2023/07/01 04:00:08;;;;;;;5.82;3.00;;;;;;;;;;2064912;28;20022;-82
2023/07/01 04:01:29;;;;;;;9.18;3.38;;;;;;;;;;2067006;28;20034;-82
2023/07/01 04:02:49;;;;;;;10.82;3.65;;;;;;;;;;2065325;28;20062;-82
2023/07/01 04:04:08;;;;;;;8.50;3.67;;;;;;;;;;2068677;28;20033;-81
2023/07/01 04:05:27;;;;;;;6.90;3.25;;;;;;;;;;2062803;28;20121;-81
2023/07/01 04:06:45;;;;;;;6.95;3.38;;;;;;;;;;2068837;28;20021;-82
2023/07/01 04:08:04;;;;;;;5.97;3.45;;;;;;;;;;2064154;28;20093;-81
2023/07/01 04:09:23;;;;;;;12.00;3.28;;;;;;;;;;2069562;28;20021;-80
2023/07/01 04:10:42;;;;;;;8.32;3.00;;;;;;;;;;2071770;28;20026;-80
2023/07/01 04:12:02;;;;;;;6.38;3.58;;;;;;;;;;2064732;28;20022;-80
2023/07/01 04:13:21;;;;;;;5.13;3.13;;;;;;;;;;2065381;28;20026;-80
2023/07/01 04:14:41;;;;;;;6.75;3.60;;;;;;;;;;2067013;28;20026;-80
2023/07/01 04:15:59;;;;;;;6.25;2.90;;;;;;;;;;2070823;28;20649;-79
2023/07/01 04:17:18;;;;;;;6.22;3.13;;;;;;;;;;2072260;28;20399;-80
2023/07/01 04:18:38;;;;;;;9.20;3.20;;;;;;;;;;2073872;28;20033;-80
2023/07/01 04:19:57;;;;;;;7.75;2.95;;;;;;;;;;2071821;28;20022;-80
2023/07/01 04:21:16;;;;;;;7.65;3.00;;;;;;;;;;2071642;28;21174;-79
2023/07/01 04:22:35;;;;;;;5.45;3.17;;;;;;;;;;2064184;28;20035;-80
2023/07/01 04:23:54;;;;;;;3.80;2.80;;;;;;;;;;2069423;28;20503;-80
2023/07/01 04:25:13;;;;;;;7.68;3.42;;;;;;;;;;2072327;28;20042;-81
2023/07/01 04:26:33;;;;;;;5.68;2.58;;;;;;;;;;2072889;28;20038;-80
2023/07/01 04:27:52;;;;;;;7.35;2.88;;;;;;;;;;2071663;28;20116;-80
2023/07/01 04:29:11;;;;;;;6.72;3.42;;;;;;;;;;2072303;28;20029;-81
2023/07/01 04:30:31;;;;;;;5.97;2.85;;;;;;;;;;2071855;28;20472;-80
2023/07/01 04:31:50;;;;;;;9.15;3.42;;;;;;;;;;2064369;28;20038;-81
2023/07/01 04:33:09;;;;;;;6.72;3.10;;;;;;;;;;2068389;28;20038;-81
2023/07/01 04:34:28;;;;;;;5.50;2.80;;;;;;;;;;2063885;28;20046;-81
2023/07/01 04:35:47;;;;;;;9.63;3.08;;;;;;;;;;2068308;28;20026;-81
2023/07/01 04:37:06;;;;;;;9.35;3.17;;;;;;;;;;2063474;28;20403;-81
2023/07/01 04:38:25;;;;;;;5.75;2.83;;;;;;;;;;2060669;28;20034;-81
2023/07/01 04:39:44;;;;;;;12.38;3.50;;;;;;;;;;2060196;28;20519;-81
2023/07/01 04:41:05;;;;;;;9.48;2.97;;;;;;;;;;2067659;28;20042;-81
2023/07/01 04:42:24;;;;;;;14.70;3.17;;;;;;;;;;2073026;28;20400;-81
2023/07/01 04:43:43;;;;;;;10.23;3.55;;;;;;;;;;2074326;28;20034;-81
2023/07/01 04:45:02;;;;;;;5.85;3.35;;;;;;;;;;2072623;28;20022;-78
2023/07/01 04:46:20;;;;;;;10.20;3.20;;;;;;;;;;2074143;28;20137;-79
2023/07/01 04:47:39;;;;;;;7.63;3.13;;;;;;;;;;2074221;28;20399;-80
2023/07/01 04:49:01;;;;;;;8.40;3.20;;;;;;;;;;2076776;28;20041;-79
2023/07/01 04:50:20;;;;;;;9.15;3.97;;;;;;;;;;2067998;28;20082;-79
2023/07/01 04:51:39;;;;;;;11.98;3.53;;;;;;;;;;2073359;28;20038;-79
2023/07/01 04:52:58;;;;;;;8.30;3.08;;;;;;;;;;2075590;28;20025;-79
2023/07/01 04:54:17;;;;;;;6.03;2.92;;;;;;;;;;2075226;28;20113;-79
2023/07/01 04:55:36;;;;;;;9.93;3.08;;;;;;;;;;2066287;28;20034;-79
2023/07/01 04:56:55;;;;;;;8.82;2.88;;;;;;;;;;2074777;28;20081;-79
2023/07/01 04:58:14;;;;;;;5.03;2.60;;;;;;;;;;2070728;28;20035;-79
2023/07/01 04:59:33;;;;;;;12.75;3.10;;;;;;;;;;2073200;28;20485;-79
2023/07/01 05:00:52;;;;;;;8.30;3.15;;;;;;;;;;2075874;28;20037;-80
2023/07/01 05:02:11;;;;;;;6.57;3.53;;;;;;;;;;2078393;28;20042;-80
2023/07/01 05:03:30;;;;;;;5.43;2.65;;;;;;;;;;2076685;28;20037;-80
2023/07/01 05:04:49;;;;;;;10.80;2.95;;;;;;;;;;2065269;28;20034;-80
2023/07/01 05:06:08;;;;;;;7.93;2.90;;;;;;;;;;2072947;28;20038;-80
2023/07/01 05:07:27;;;;;;;8.07;3.13;;;;;;;;;;2081751;28;20022;-81
2023/07/01 05:08:46;;;;;;;7.25;3.10;;;;;;;;;;2082319;28;20069;-80
2023/07/01 05:10:05;;;;;;;8.77;3.20;;;;;;;;;;2082847;28;20021;-81
2023/07/01 05:11:25;;;;;;;9.65;3.90;;;;;;;;;;2083067;28;20033;-81
2023/07/01 05:12:45;;;;;;;5.50;2.95;;;;;;;;;;2082079;28;20018;-80
2023/07/01 05:14:04;;;;;;;8.40;3.15;;;;;;;;;;2080986;28;21283;-80
2023/07/01 05:15:23;;;;;;;5.97;2.95;;;;;;;;;;2081411;28;20026;-81
2023/07/01 05:16:42;;;;;;;6.53;3.05;;;;;;;;;;2079115;28;20029;-80
2023/07/01 05:18:01;;;;;;;6.43;3.05;;;;;;;;;;2066507;28;20023;-79
2023/07/01 05:19:22;;;;;;;9.52;3.80;;;;;;;;;;2070376;28;20030;-80
2023/07/01 05:20:41;;;;;;;11.95;2.88;;;;;;;;;;2075845;28;20030;-80
2023/07/01 05:22:00;;;;;;;10.82;3.38;;;;;;;;;;2065850;28;20610;-80
2023/07/01 05:23:18;;;;;;;8.85;3.03;;;;;;;;;;2064484;28;20519;-80
2023/07/01 05:24:37;;;;;;;7.13;3.03;;;;;;;;;;2068234;28;20487;-80
2023/07/01 05:25:56;;;;;;;8.80;3.83;;;;;;;;;;2064248;28;20034;-80
2023/07/01 05:27:15;;;;;;;6.47;3.55;;;;;;;;;;2070465;28;20070;-80
2023/07/01 05:28:34;;;;;;;7.55;2.97;;;;;;;;;;2078875;28;20030;-79
2023/07/01 05:29:53;;;;;;;9.57;3.20;;;;;;;;;;2082089;28;20073;-80
2023/07/01 05:31:12;;;;;;;12.95;4.05;;;;;;;;;;2072990;28;20026;-80
2023/07/01 05:32:31;;;;;;;10.40;3.85;;;;;;;;;;2071002;28;20035;-79
2023/07/01 05:33:50;;;;;;;6.57;2.80;;;;;;;;;;2074430;28;20026;-79
2023/07/01 05:35:09;;;;;;;8.60;3.15;;;;;;;;;;2081037;28;20030;-79
2023/07/01 05:36:29;;;;;;;8.35;2.75;;;;;;;;;;2076684;28;20033;-79
2023/07/01 05:37:49;;;;;;;10.85;3.35;;;;;;;;;;2072769;28;20479;-83
2023/07/01 05:39:09;;;;;;;7.70;3.35;;;;;;;;;;2074368;28;20706;-81
2023/07/01 05:40:28;;;;;;;6.60;2.92;;;;;;;;;;2073772;28;20034;-80
2023/07/01 05:41:47;;;;;;;10.70;3.30;;;;;;;;;;2074006;28;20030;-80
2023/07/01 05:43:06;;;;;;;9.88;3.03;;;;;;;;;;2072599;28;20034;-79
2023/07/01 05:44:25;;;;;;;8.68;3.33;;;;;;;;;;2072388;28;20034;-78
2023/07/01 05:45:44;;;;;;;7.65;3.17;;;;;;;;;;2071481;28;20026;-78
2023/07/01 05:47:03;;;;;;;12.70;3.65;;;;;;;;;;2068793;28;20052;-77
2023/07/01 05:48:22;;;;;;;6.30;2.78;;;;;;;;;;2071428;28;20117;-78
2023/07/01 05:49:40;;;;;;;7.32;2.70;;;;;;;;;;2072019;28;20446;-79
2023/07/01 05:50:59;;;;;;;9.98;3.45;;;;;;;;;;2072616;28;20030;-82
2023/07/01 05:52:19;;;;;;;6.53;3.08;;;;;;;;;;2072376;28;20251;-79
2023/07/01 05:53:38;;;;;;;9.48;3.25;;;;;;;;;;2074406;28;20022;-81
2023/07/01 05:54:57;;;;;;;8.13;2.90;;;;;;;;;;2071367;28;20057;-82
2023/07/01 05:56:16;;;;;;;5.97;3.10;;;;;;;;;;2065990;28;20434;-82
2023/07/01 05:57:35;;;;;;;4.82;2.90;;;;;;;;;;2068373;28;20026;-81
2023/07/01 05:58:54;;;;;;;8.07;3.40;;;;;;;;;;2074270;28;20065;-81
2023/07/01 06:00:14;;;;;;;5.78;3.47;;;;;;;;;;2072584;28;20502;-81
2023/07/01 06:01:33;;;;;;;5.40;2.60;;;;;;;;;;2070545;28;20403;-84
2023/07/01 06:02:51;;;;;;;6.35;2.47;;;;;;;;;;2072407;28;20038;-83
2023/07/01 06:04:10;;;;;;;8.15;2.72;;;;;;;;;;2073396;28;20121;-83
2023/07/01 06:05:29;;;;;;;6.50;3.10;;;;;;;;;;2073350;28;20046;-85
2023/07/01 06:06:48;;;;;;;10.40;3.20;;;;;;;;;;2071955;28;20515;-85
2023/07/01 06:08:07;;;;;;;7.70;3.40;;;;;;;;;;2071369;28;20124;-84
2023/07/01 06:09:26;;;;;;;4.45;2.92;;;;;;;;;;2070564;28;20041;-85
2023/07/01 06:10:45;;;;;;;9.07;2.75;;;;;;;;;;2068955;28;20022;-84
2023/07/01 06:12:04;;;;;;;8.48;3.13;;;;;;;;;;2070922;28;20021;-84
2023/07/01 06:13:23;;;;;;;12.82;3.10;;;;;;;;;;2069440;28;20030;-84
2023/07/01 06:14:43;;;;;;;8.80;3.10;;;;;;;;;;2073312;28;20030;-83
2023/07/01 06:16:02;;;;;;;6.05;2.60;;;;;;;;;;2062502;28;20058;-83
2023/07/01 06:17:20;;;;;;;6.55;2.78;;;;;;;;;;2069199;28;20038;-84
2023/07/01 06:18:40;;;;;;;7.43;2.85;;;;;;;;;;2072309;28;20494;-84
2023/07/01 06:19:59;;;;;;;5.78;3.40;;;;;;;;;;2073640;28;20026;-84
2023/07/01 06:21:19;;;;;;;7.30;2.97;;;;;;;;;;2070414;28;20034;-84
2023/07/01 06:22:39;;;;;;;9.38;3.03;;;;;;;;;;2073440;28;20040;-84
2023/07/01 06:23:58;;;;;;;6.97;2.60;;;;;;;;;;2073075;28;20022;-81
2023/07/01 06:25:18;;;;;;;8.70;3.65;;;;;;;;;;2070752;28;20459;-85
2023/07/01 06:26:37;;;;;;;4.25;2.92;;;;;;;;;;2078028;28;20029;-84
2023/07/01 06:27:56;;;;;;;7.82;3.33;;;;;;;;;;2075522;28;20026;-82
2023/07/01 06:29:15;;;;;;;12.43;3.38;;;;;;;;;;2072135;28;20034;-82
2023/07/01 06:30:34;;;;;;;5.18;2.70;;;;;;;;;;2071977;28;20566;-79
2023/07/01 06:31:52;;;;;;;9.35;3.00;;;;;;;;;;2069303;28;20446;-81
2023/07/01 06:33:13;;;;;;;7.63;3.28;;;;;;;;;;2068202;28;20041;-82
2023/07/01 06:34:32;;;;;;;5.15;2.95;;;;;;;;;;2069924;28;20117;-82
2023/07/01 06:35:51;;;;;;;8.35;3.47;;;;;;;;;;2073168;28;20114;-81
2023/07/01 06:37:10;;;;;;;11.85;3.33;;;;;;;;;;2072966;28;20022;-82
2023/07/01 06:38:28;;;;;;;5.60;2.97;;;;;;;;;;2071133;28;20157;-83
2023/07/01 06:39:47;;;;;;;6.47;3.42;;;;;;;;;;2069123;28;20022;-83
2023/07/01 06:41:06;;;;;;;11.13;3.30;;;;;;;;;;2071940;28;20042;-82
2023/07/01 06:42:26;;;;;;;7.97;2.70;;;;;;;;;;2073166;28;20046;-82
2023/07/01 06:43:45;;;;;;;7.57;2.85;;;;;;;;;;2069149;28;20037;-83
2023/07/01 06:45:04;;;;;;;9.52;3.03;;;;;;;;;;2069388;28;20150;-81
2023/07/01 06:46:23;;;;;;;6.55;3.38;;;;;;;;;;2068626;28;20515;-82
2023/07/01 06:47:42;;;;;;;7.30;3.13;;;;;;;;;;2068604;28;20038;-82
2023/07/01 06:49:01;;;;;;;8.05;3.08;;;;;;;;;;2070508;28;20041;-81
2023/07/01 06:50:20;;;;;;;8.43;3.38;;;;;;;;;;2069438;28;20026;-81
2023/07/01 06:51:39;;;;;;;10.95;2.85;;;;;;;;;;2067561;28;20026;-80
2023/07/01 06:52:58;;;;;;;7.88;3.10;;;;;;;;;;2066905;28;20477;-81
2023/07/01 06:54:17;;;;;;;6.03;3.28;;;;;;;;;;2069560;28;20411;-81
2023/07/01 06:55:42;;;;;;;9.95;3.63;;;;;;;;;;2072899;28;20022;-80
2023/07/01 06:57:02;;;;;;;8.40;3.00;;;;;;;;;;2073005;28;20057;-81
2023/07/01 06:58:21;;;;;;;6.03;3.20;;;;;;;;;;2068892;28;20069;-80
2023/07/01 06:59:41;;;;;;;6.78;3.28;;;;;;;;;;2070552;28;20038;-80
2023/07/01 07:01:00;;;;;;;12.75;2.80;;;;;;;;;;2071494;28;20033;-81
2023/07/01 07:02:19;;;;;;;6.18;3.38;;;;;;;;;;2069648;28;20173;-79
2023/07/01 07:03:40;;;;;;;11.73;3.20;;;;;;;;;;2074174;28;20034;-79
2023/07/01 07:04:59;;;;;;;6.50;3.05;;;;;;;;;;2070183;28;20038;-78
2023/07/01 07:06:18;;;;;;;8.10;3.30;;;;;;;;;;2075851;28;20026;-80
2023/07/01 07:07:37;;;;;;;10.95;3.20;;;;;;;;;;2072278;28;20029;-78
2023/07/01 07:08:56;;;;;;;7.22;3.28;;;;;;;;;;2073923;28;20034;-79
2023/07/01 07:10:14;;;;;;;7.25;2.67;;;;;;;;;;2071495;28;20109;-78
2023/07/01 07:11:34;;;;;;;6.15;2.63;;;;;;;;;;2069966;28;20021;-78
2023/07/01 07:12:53;;;;;;;7.55;2.58;;;;;;;;;;2071245;28;20022;-78
2023/07/01 07:14:12;;;;;;;6.45;2.78;;;;;;;;;;2071140;28;20034;-80
2023/07/01 07:15:31;;;;;;;8.93;3.30;;;;;;;;;;2070706;28;20112;-78
2023/07/01 07:16:50;;;;;;;8.05;2.88;;;;;;;;;;2071795;28;20034;-77
2023/07/01 07:18:10;;;;;;;9.13;3.28;;;;;;;;;;2068251;28;20534;-77
2023/07/01 07:19:29;;;;;;;11.18;3.17;;;;;;;;;;2070551;28;20034;-79
2023/07/01 07:20:48;;;;;;;5.38;2.75;;;;;;;;;;2070614;28;20033;-79
2023/07/01 07:22:07;;;;;;;7.95;3.08;;;;;;;;;;2072356;28;20027;-78
2023/07/01 07:23:26;;;;;;;7.40;2.90;;;;;;;;;;2072973;28;20391;-78
2023/07/01 07:24:48;;;;;;;6.97;2.95;;;;;;;;;;2072980;28;20487;-76
2023/07/01 07:26:07;;;;;;;5.28;2.97;;;;;;;;;;2072219;28;20565;-80
2023/07/01 07:27:26;;;;;;;6.43;2.70;;;;;;;;;;2070279;28;20034;-78
2023/07/01 07:28:45;;;;;;;7.10;3.17;;;;;;;;;;2071616;28;20446;-78
2023/07/01 07:30:05;;;;;;;8.13;3.38;;;;;;;;;;2070835;28;20029;-77
2023/07/01 07:31:23;;;;;;;12.23;3.33;;;;;;;;;;2072692;28;20030;-77
2023/07/01 07:32:42;;;;;;;10.13;3.70;;;;;;;;;;2073184;28;20066;-79
2023/07/01 07:34:01;;;;;;;10.38;2.80;;;;;;;;;;2071782;28;20046;-78
2023/07/01 07:35:21;;;;;;;8.38;3.15;;;;;;;;;;2071185;28;20034;-79
2023/07/01 07:36:40;;;;;;;8.68;3.15;;;;;;;;;;2072217;28;20125;-79
2023/07/01 07:37:59;;;;;;;4.07;2.60;;;;;;;;;;2067988;28;20620;-78
2023/07/01 07:39:18;;;;;;;8.95;3.10;;;;;;;;;;2070576;28;20026;-78
2023/07/01 07:40:37;;;;;;;7.78;3.28;;;;;;;;;;2071727;28;20483;-80
2023/07/01 07:41:56;;;;;;;5.80;2.40;;;;;;;;;;2071744;28;20050;-79
2023/07/01 07:43:15;;;;;;;5.22;2.67;;;;;;;;;;2072280;28;20383;-79
2023/07/01 07:44:34;;;;;;;7.50;2.88;;;;;;;;;;2070688;28;20029;-79
2023/07/01 07:45:53;;;;;;;9.68;2.75;;;;;;;;;;2073709;28;20510;-79
2023/07/01 07:47:13;;;;;;;5.40;2.63;;;;;;;;;;2070929;28;20077;-78
2023/07/01 07:48:32;;;;;;;7.25;2.60;;;;;;;;;;2070403;28;20034;-76
2023/07/01 07:49:51;;;;;;;8.45;3.40;;;;;;;;;;2071289;28;20480;-78
2023/07/01 07:51:10;;;;;;;8.15;3.05;;;;;;;;;;2070439;28;20025;-81
2023/07/01 07:52:29;;;;;;;6.50;2.78;;;;;;;;;;2066066;28;20034;-80
2023/07/01 07:53:49;;;;;;;7.63;2.40;;;;;;;;;;2071297;28;20105;-81
2023/07/01 07:55:09;;;;;;;6.80;3.17;;;;;;;;;;2070281;28;20595;-80